createdAt,value
2023-01-27T00:00:43.596Z,48.10
2023-01-27T00:03:25.393Z,58.03
2023-01-27T00:05:55.940Z,52.05
2023-01-27T00:08:25.138Z,46.10
2023-01-27T00:11:18.573Z,48.30
2023-01-27T00:13:46.834Z,48.85
2023-01-27T00:16:15.778Z,49.20
2023-01-27T00:18:45.580Z,46.03
2023-01-27T00:21:33.213Z,50.70
2023-01-27T00:24:19.855Z,46.22
2023-01-27T00:26:48.872Z,48.63
2023-01-27T00:29:18.033Z,53.47
2023-01-27T00:32:04.441Z,50.45
2023-01-27T00:34:33.749Z,51.78
2023-01-27T00:37:04.135Z,53.13
2023-01-27T00:39:35.467Z,52.92
2023-01-27T00:42:04.442Z,55.88
2023-01-27T00:44:33.613Z,42.38
2023-01-27T00:47:02.515Z,49.80
2023-01-27T00:49:31.715Z,52.38
2023-01-27T00:52:00.633Z,51.80
2023-01-27T00:54:31.349Z,51.80
2023-01-27T00:59:29.345Z,51.40
2023-01-27T01:01:58.340Z,50.47
2023-01-27T01:04:27.627Z,50.55
2023-01-27T01:06:56.534Z,67.60
2023-01-27T01:09:26.698Z,60.75
2023-01-27T01:11:57.060Z,68.22
2023-01-27T01:14:26.286Z,69.32
2023-01-27T01:16:56.304Z,64.20
2023-01-27T01:21:54.379Z,60.85
2023-01-27T01:24:23.614Z,61.28
2023-01-27T01:26:53.047Z,63.33
2023-01-27T01:29:23.657Z,58.97
2023-01-27T01:31:52.889Z,58.78
2023-01-27T01:34:22.042Z,52.40
2023-01-27T01:36:51.891Z,49.97
2023-01-27T01:39:21.235Z,48.97
2023-01-27T01:41:50.121Z,55.67
2023-01-27T01:44:28.658Z,52.35
2023-01-27T01:46:57.720Z,51.65
2023-01-27T01:49:33.747Z,49.80
2023-01-27T01:52:08.170Z,48.95
2023-01-27T01:54:42.323Z,49.20
2023-01-27T01:57:16.660Z,48.95
2023-01-27T01:59:51.617Z,51.55
2023-01-27T02:02:26.324Z,53.28
2023-01-27T02:04:58.671Z,51.95
2023-01-27T02:07:34.598Z,47.90
2023-01-27T02:10:04.090Z,47.92
2023-01-27T02:12:36.876Z,43.33
2023-01-27T02:15:09.526Z,39.78
2023-01-27T02:17:38.714Z,39.30
2023-01-27T02:20:13.568Z,43.17
2023-01-27T02:22:54.339Z,44.20
2023-01-27T02:25:37.713Z,41.03
2023-01-27T02:28:09.313Z,41.38
2023-01-27T02:30:38.898Z,40.92
2023-01-27T02:33:12.544Z,39.95
2023-01-27T02:35:57.894Z,39.83
2023-01-27T02:38:28.615Z,37.05
2023-01-27T02:41:05.349Z,36.00
2023-01-27T02:43:34.352Z,39.58
2023-01-27T02:46:03.995Z,37.50
2023-01-27T02:48:33.057Z,34.72
2023-01-27T02:51:02.589Z,33.13
2023-01-27T02:53:34.073Z,32.30
2023-01-27T02:56:04.904Z,35.33
2023-01-27T02:58:33.914Z,34.88
2023-01-27T03:01:10.446Z,36.28
2023-01-27T03:03:44.065Z,31.00
2023-01-27T03:06:13.794Z,37.00
2023-01-27T03:08:43.217Z,36.75
2023-01-27T03:11:14.552Z,36.55
2023-01-27T03:13:43.526Z,34.17
2023-01-27T03:16:31.080Z,37.20
2023-01-27T03:19:00.063Z,39.85
2023-01-27T03:21:29.237Z,41.28
2023-01-27T03:23:58.287Z,36.90
2023-01-27T03:26:28.862Z,34.15
2023-01-27T03:29:14.104Z,33.65
2023-01-27T03:31:46.193Z,35.15
2023-01-27T03:34:16.039Z,32.92
2023-01-27T03:37:08.728Z,28.27
2023-01-27T03:39:55.359Z,29.55
2023-01-27T03:42:44.464Z,28.52
2023-01-27T03:45:30.820Z,26.65
2023-01-27T03:48:00.206Z,29.90
2023-01-27T03:50:38.076Z,26.35
2023-01-27T03:53:07.966Z,28.45
2023-01-27T03:55:38.506Z,28.30
2023-01-27T03:58:19.675Z,26.23
2023-01-27T04:00:51.020Z,26.58
2023-01-27T04:03:39.058Z,24.25
2023-01-27T04:06:26.922Z,27.60
2023-01-27T04:08:56.660Z,26.77
2023-01-27T04:11:43.050Z,24.58
2023-01-27T04:14:15.028Z,22.98
2023-01-27T04:16:44.307Z,25.42
2023-01-27T04:19:14.630Z,28.75
2023-01-27T04:21:43.913Z,26.13
2023-01-27T04:24:22.826Z,27.17
2023-01-27T04:26:55.438Z,28.73
2023-01-27T04:29:28.146Z,27.98
2023-01-27T04:31:58.081Z,27.42
2023-01-27T04:36:57.708Z,23.83
2023-01-27T04:39:27.446Z,21.75
2023-01-27T04:41:57.848Z,19.20
2023-01-27T04:44:28.706Z,17.05
2023-01-27T04:46:57.704Z,13.60
2023-01-27T04:49:27.743Z,35.05
2023-01-27T04:51:56.757Z,17.98
2023-01-27T04:54:25.971Z,15.57
2023-01-27T04:57:00.254Z,23.00
2023-01-27T04:59:30.982Z,12.30
2023-01-27T05:04:29.491Z,12.40
2023-01-27T05:06:58.469Z,8.95
2023-01-27T05:09:27.899Z,5.23
2023-01-27T05:11:56.864Z,9.93
2023-01-27T05:14:26.240Z,6.55
2023-01-27T05:16:56.765Z,9.05
2023-01-27T05:19:26.114Z,10.93
2023-01-27T05:21:54.989Z,6.07
2023-01-27T05:24:24.200Z,7.15
2023-01-27T05:26:53.620Z,10.80
2023-01-27T05:29:22.947Z,5.82
2023-01-27T05:31:51.861Z,6.07
2023-01-27T05:34:22.524Z,8.40
2023-01-27T05:39:20.853Z,9.32
2023-01-27T05:41:50.427Z,8.18
2023-01-27T05:44:19.712Z,5.70
2023-01-27T05:46:48.776Z,6.25
2023-01-27T05:49:18.114Z,4.30
2023-01-27T05:51:48.361Z,9.45
2023-01-27T05:54:17.623Z,5.85
2023-01-27T05:56:46.621Z,6.28
2023-01-27T05:59:15.901Z,8.07
2023-01-27T06:01:44.936Z,5.75
2023-01-27T06:04:15.056Z,6.03
2023-01-27T06:06:43.959Z,5.60
2023-01-27T06:09:14.824Z,5.70
2023-01-27T06:11:43.779Z,6.82
2023-01-27T06:14:12.973Z,6.45
2023-01-27T06:16:43.624Z,6.93
2023-01-27T06:19:13.390Z,8.85
2023-01-27T06:21:42.252Z,5.65
2023-01-27T06:24:13.820Z,5.63
2023-01-27T06:26:42.814Z,6.32
2023-01-27T06:29:12.046Z,6.43
2023-01-27T06:31:41.420Z,10.38
2023-01-27T06:34:10.821Z,7.65
2023-01-27T06:36:39.758Z,4.95
2023-01-27T06:39:09.810Z,5.10
2023-01-27T06:41:40.131Z,5.68
2023-01-27T06:44:09.460Z,6.10
2023-01-27T06:46:38.465Z,8.95
2023-01-27T06:49:07.689Z,7.00
2023-01-27T06:51:36.618Z,6.55
2023-01-27T06:54:06.002Z,4.85
2023-01-27T06:56:34.872Z,7.97
2023-01-27T06:59:05.767Z,10.18
2023-01-27T07:01:35.218Z,7.65
2023-01-27T07:04:04.727Z,6.28
2023-01-27T07:06:34.109Z,5.55
2023-01-27T07:09:03.455Z,8.15
2023-01-27T07:11:32.329Z,12.25
2023-01-27T07:14:02.101Z,15.70
2023-01-27T07:16:32.732Z,6.70
2023-01-27T07:19:02.157Z,10.38
2023-01-27T07:21:31.095Z,6.78
2023-01-27T07:24:00.895Z,7.18
2023-01-27T07:26:29.840Z,6.10
2023-01-27T07:28:59.746Z,8.50
2023-01-27T07:31:28.834Z,10.45
2023-01-27T07:33:59.511Z,11.90
2023-01-27T07:38:57.439Z,5.43
2023-01-27T07:41:26.420Z,4.22
2023-01-27T07:43:55.610Z,7.75
2023-01-27T07:46:27.307Z,4.68
2023-01-27T07:48:58.039Z,11.73
2023-01-27T07:53:55.968Z,10.02
2023-01-27T07:56:25.008Z,9.20
2023-01-27T07:58:56.100Z,9.75
2023-01-27T08:01:25.438Z,7.00
2023-01-27T08:03:55.013Z,4.65
2023-01-27T08:06:25.442Z,4.13
2023-01-27T08:08:54.640Z,4.47
2023-01-27T08:11:23.548Z,10.48
2023-01-27T08:13:53.856Z,7.32
2023-01-27T08:16:22.863Z,6.60
2023-01-27T08:18:53.793Z,7.30
2023-01-27T08:21:25.245Z,6.68
2023-01-27T08:23:58.133Z,4.82
2023-01-27T08:26:27.273Z,6.32
2023-01-27T08:28:56.449Z,3.63
2023-01-27T08:31:25.493Z,3.75
2023-01-27T08:33:55.692Z,4.50
2023-01-27T08:36:26.311Z,4.97
2023-01-27T08:38:56.806Z,3.72
2023-01-27T08:41:27.769Z,4.18
2023-01-27T08:43:57.242Z,6.60
2023-01-27T08:46:26.954Z,4.28
2023-01-27T08:48:56.218Z,6.00
2023-01-27T08:51:26.598Z,4.07
2023-01-27T08:53:55.915Z,5.18
2023-01-27T08:56:25.142Z,3.80
2023-01-27T08:58:54.538Z,7.23
2023-01-27T09:01:24.009Z,4.93
2023-01-27T09:03:53.365Z,3.83
2023-01-27T09:06:22.802Z,6.03
2023-01-27T09:09:11.281Z,2.60
2023-01-27T09:11:43.389Z,6.78
2023-01-27T09:14:13.042Z,4.20
2023-01-27T09:16:41.908Z,9.73
2023-01-27T09:19:11.167Z,5.68
2023-01-27T09:21:40.101Z,7.15
2023-01-27T09:24:11.305Z,10.15
2023-01-27T09:26:40.273Z,9.00
2023-01-27T09:29:09.477Z,11.98
2023-01-27T09:31:38.553Z,7.95
2023-01-27T09:34:08.032Z,5.38
2023-01-27T09:36:44.142Z,4.43
2023-01-27T09:39:16.887Z,3.05
2023-01-27T09:42:08.808Z,3.88
2023-01-27T09:44:55.009Z,2.85
2023-01-27T09:47:47.135Z,3.08
2023-01-27T09:50:38.397Z,4.35
2023-01-27T09:53:29.720Z,3.03
2023-01-27T09:56:05.467Z,3.00
2023-01-27T09:58:46.897Z,5.65
2023-01-27T10:01:26.035Z,2.85
2023-01-27T10:04:11.117Z,5.30
2023-01-27T10:06:53.777Z,6.50
2023-01-27T10:10:00.971Z,2.08
2023-01-27T10:12:44.076Z,2.83
2023-01-27T10:15:25.748Z,3.50
2023-01-27T10:18:08.919Z,4.65
2023-01-27T10:20:46.705Z,3.60
2023-01-27T10:23:26.239Z,4.45
2023-01-27T10:26:03.796Z,3.83
2023-01-27T10:28:35.165Z,4.90
2023-01-27T10:31:09.708Z,6.95
2023-01-27T10:33:49.652Z,5.35
2023-01-27T10:36:26.824Z,6.00
2023-01-27T10:39:10.923Z,3.53
2023-01-27T10:41:51.856Z,4.30
2023-01-27T10:44:42.344Z,4.88
2023-01-27T10:47:16.785Z,2.53
2023-01-27T10:49:51.704Z,3.42
2023-01-27T10:52:25.576Z,4.20
2023-01-27T10:55:00.628Z,6.10
2023-01-27T10:57:36.001Z,2.03
2023-01-27T11:00:41.947Z,3.15
2023-01-27T11:03:10.841Z,1.38
2023-01-27T11:05:44.509Z,5.80
2023-01-27T11:08:16.380Z,6.28
2023-01-27T11:11:03.338Z,4.60
2023-01-27T11:13:34.166Z,6.85
2023-01-27T11:16:07.558Z,3.45
2023-01-27T11:18:39.735Z,3.33
2023-01-27T11:21:13.608Z,1.45
2023-01-27T11:23:45.907Z,5.07
2023-01-27T11:26:26.415Z,3.42
2023-01-27T11:29:02.100Z,6.78
2023-01-27T11:31:41.366Z,8.20
2023-01-27T11:34:17.443Z,3.92
2023-01-27T11:36:49.276Z,4.95
2023-01-27T11:39:20.014Z,3.15
2023-01-27T11:41:53.173Z,1.80
2023-01-27T11:44:25.903Z,1.33
2023-01-27T11:46:57.725Z,1.98
2023-01-27T11:49:31.457Z,4.18
2023-01-27T11:52:05.868Z,2.55
2023-01-27T11:54:42.119Z,3.33
2023-01-27T11:57:20.803Z,2.95
2023-01-27T11:59:52.570Z,5.95
2023-01-27T12:02:32.150Z,1.85
2023-01-27T12:05:05.875Z,4.68
2023-01-27T12:07:47.366Z,3.85
2023-01-27T12:10:28.011Z,3.10
2023-01-27T12:12:58.710Z,3.83
2023-01-27T12:15:30.022Z,2.70
2023-01-27T12:18:04.525Z,3.08
2023-01-27T12:20:38.265Z,5.85
2023-01-27T12:23:22.219Z,1.88
2023-01-27T12:25:56.805Z,3.55
2023-01-27T12:28:30.659Z,2.95
2023-01-27T12:31:06.929Z,2.50
2023-01-27T12:33:41.343Z,3.58
2023-01-27T12:36:16.414Z,4.18
2023-01-27T12:38:53.208Z,2.90
2023-01-27T12:41:26.211Z,3.67
2023-01-27T12:43:57.374Z,4.13
2023-01-27T12:46:27.865Z,3.95
2023-01-27T12:49:10.721Z,6.93
2023-01-27T12:51:43.421Z,1.55
2023-01-27T12:54:18.423Z,3.60
2023-01-27T12:56:47.492Z,4.82
2023-01-27T12:59:19.467Z,4.50
2023-01-27T13:02:01.904Z,4.68
2023-01-27T13:04:33.112Z,3.33
2023-01-27T13:07:09.255Z,4.00
2023-01-27T13:09:46.973Z,3.80
2023-01-27T13:12:21.207Z,3.63
2023-01-27T13:14:54.520Z,4.05
2023-01-27T13:17:36.822Z,4.38
2023-01-27T13:20:17.412Z,5.25
2023-01-27T13:22:48.617Z,5.53
2023-01-27T13:25:22.996Z,8.45
2023-01-27T13:27:57.511Z,11.57
2023-01-27T13:30:34.260Z,21.95
2023-01-27T13:33:19.288Z,12.57
2023-01-27T13:35:59.955Z,13.60
2023-01-27T13:41:07.823Z,4.68
2023-01-27T13:43:42.102Z,2.80
2023-01-27T13:46:18.573Z,2.25
2023-01-27T13:48:50.858Z,3.42
2023-01-27T13:51:23.644Z,2.47
2023-01-27T13:54:00.622Z,3.47
2023-01-27T13:56:47.063Z,2.10
2023-01-27T13:59:38.579Z,3.00
2023-01-27T14:02:31.984Z,4.60
2023-01-27T14:05:30.760Z,3.10
2023-01-27T14:08:15.786Z,3.67
2023-01-27T14:11:01.529Z,1.83
2023-01-27T14:13:43.915Z,1.60
2023-01-27T14:16:19.491Z,4.60
2023-01-27T14:18:54.079Z,3.50
2023-01-27T14:21:40.970Z,3.65
2023-01-27T14:24:24.342Z,3.72
2023-01-27T14:27:01.381Z,3.60
2023-01-27T14:29:40.496Z,3.00
2023-01-27T14:32:22.425Z,4.65
2023-01-27T14:35:16.258Z,2.13
2023-01-27T14:37:53.602Z,2.13
2023-01-27T14:40:29.533Z,5.10
2023-01-27T14:43:12.157Z,3.13
2023-01-27T14:45:48.661Z,2.55
2023-01-27T14:48:38.737Z,3.22
2023-01-27T14:51:16.975Z,2.90
2023-01-27T14:53:59.842Z,3.65
2023-01-27T14:56:40.339Z,3.45
2023-01-27T14:59:17.641Z,4.72
2023-01-27T15:01:56.294Z,3.00
2023-01-27T15:04:36.788Z,4.15
2023-01-27T15:07:14.448Z,3.92
2023-01-27T15:09:56.886Z,9.20
2023-01-27T15:12:48.196Z,15.80
2023-01-27T15:16:05.192Z,28.48
2023-01-27T15:19:06.869Z,24.50
2023-01-27T15:21:58.330Z,19.13
2023-01-27T15:24:54.292Z,9.75
2023-01-27T15:27:23.986Z,13.93
2023-01-27T15:29:54.605Z,11.00
2023-01-27T15:35:36.802Z,9.52
2023-01-27T15:38:34.013Z,8.55
2023-01-27T15:41:09.145Z,8.13
2023-01-27T15:44:02.916Z,7.05
2023-01-27T15:46:36.644Z,10.65
2023-01-27T15:49:13.404Z,12.38
2023-01-27T15:51:42.946Z,14.65
2023-01-27T15:54:18.981Z,7.30
2023-01-27T15:56:53.116Z,4.05
2023-01-27T15:59:26.496Z,11.05
2023-01-27T16:02:15.021Z,5.72
2023-01-27T16:04:44.950Z,9.27
2023-01-27T16:07:26.132Z,8.52
2023-01-27T16:09:55.431Z,10.05
2023-01-27T16:12:37.956Z,5.13
2023-01-27T16:15:35.229Z,5.20
2023-01-27T16:18:41.855Z,7.88
2023-01-27T16:21:38.508Z,11.40
2023-01-27T16:24:16.392Z,9.50
2023-01-27T16:26:51.491Z,12.68
2023-01-27T16:29:31.180Z,13.07
2023-01-27T16:32:05.740Z,7.97
2023-01-27T16:34:45.388Z,7.88
2023-01-27T16:37:23.753Z,5.28
2023-01-27T16:40:00.601Z,4.30
2023-01-27T16:42:33.103Z,4.63
2023-01-27T16:45:10.239Z,12.13
2023-01-27T16:47:44.950Z,10.57
2023-01-27T16:50:34.931Z,21.67
2023-01-27T16:53:06.297Z,6.57
2023-01-27T16:55:35.669Z,10.95
2023-01-27T16:58:04.940Z,5.93
2023-01-27T17:00:36.745Z,7.88
2023-01-27T17:03:10.989Z,23.33
2023-01-27T17:05:44.142Z,21.20
2023-01-27T17:08:20.145Z,10.70
2023-01-27T17:10:52.199Z,18.13
2023-01-27T17:13:33.120Z,17.58
2023-01-27T17:16:05.742Z,19.02
2023-01-27T17:18:51.027Z,9.38
2023-01-27T17:21:32.981Z,16.80
2023-01-27T17:24:15.763Z,22.38
2023-01-27T17:26:49.267Z,15.88
2023-01-27T17:29:22.260Z,14.25
2023-01-27T17:31:52.341Z,6.53
2023-01-27T17:34:23.092Z,7.07
2023-01-27T17:37:15.384Z,6.40
2023-01-27T17:39:45.391Z,8.90
2023-01-27T17:44:44.969Z,14.63
2023-01-27T17:47:16.779Z,6.57
2023-01-27T17:49:47.440Z,13.05
2023-01-27T17:52:22.070Z,3.55
2023-01-27T17:54:52.440Z,2.53
2023-01-27T17:57:24.285Z,12.02
2023-01-27T18:00:01.574Z,12.65
2023-01-27T18:02:33.796Z,7.45
2023-01-27T18:05:05.669Z,8.30
2023-01-27T18:07:36.767Z,8.77
2023-01-27T18:10:24.780Z,13.32
2023-01-27T18:12:55.107Z,13.32
2023-01-27T18:15:49.860Z,17.08
2023-01-27T18:18:24.288Z,20.90
2023-01-27T18:21:05.526Z,7.32
2023-01-27T18:23:37.685Z,11.82
2023-01-27T18:26:14.940Z,7.10
2023-01-27T18:28:45.896Z,9.18
2023-01-27T18:31:19.406Z,9.80
2023-01-27T18:33:57.671Z,10.35
2023-01-27T18:36:29.977Z,7.72
2023-01-27T18:39:00.733Z,3.80
2023-01-27T18:41:35.349Z,10.48
2023-01-27T18:44:04.676Z,6.80
2023-01-27T18:46:33.598Z,27.58
2023-01-27T18:49:03.203Z,13.32
2023-01-27T18:51:32.104Z,14.23
2023-01-27T18:54:02.766Z,19.38
2023-01-27T18:59:00.930Z,10.70
2023-01-27T19:01:30.185Z,12.70
2023-01-27T19:03:59.439Z,9.27
2023-01-27T19:06:28.440Z,14.73
2023-01-27T19:08:57.666Z,8.35
2023-01-27T19:11:28.320Z,5.35
2023-01-27T19:13:57.736Z,6.80
2023-01-27T19:16:27.558Z,3.45
2023-01-27T19:18:57.985Z,6.32
2023-01-27T19:21:27.259Z,1.88
2023-01-27T19:23:56.560Z,3.20
2023-01-27T19:26:27.623Z,3.25
2023-01-27T19:28:58.810Z,6.97
2023-01-27T19:31:27.984Z,4.93
2023-01-27T19:33:57.920Z,4.63
2023-01-27T19:36:31.941Z,5.35
2023-01-27T19:39:11.852Z,4.80
2023-01-27T19:41:42.264Z,6.22
2023-01-27T19:44:11.651Z,4.18
2023-01-27T19:46:41.500Z,4.63
2023-01-27T19:49:16.287Z,6.03
2023-01-27T19:51:45.804Z,4.45
2023-01-27T19:54:15.204Z,5.55
2023-01-27T19:56:46.052Z,7.63
2023-01-27T19:59:15.348Z,7.88
2023-01-27T20:01:44.353Z,6.53
2023-01-27T20:04:13.730Z,7.20
2023-01-27T20:06:42.801Z,6.60
2023-01-27T20:09:12.204Z,7.73
2023-01-27T20:11:42.716Z,8.90
2023-01-27T20:14:15.331Z,7.88
2023-01-27T20:16:44.875Z,6.55
2023-01-27T20:19:16.201Z,5.68
2023-01-27T20:21:46.719Z,6.47
2023-01-27T20:24:17.575Z,7.55
2023-01-27T20:26:47.105Z,7.40
2023-01-27T20:29:17.691Z,7.72
2023-01-27T20:34:16.054Z,5.60
2023-01-27T20:36:45.023Z,7.20
2023-01-27T20:39:14.530Z,4.45
2023-01-27T20:41:43.647Z,5.13
2023-01-27T20:44:13.758Z,5.00
2023-01-27T20:46:44.091Z,4.55
2023-01-27T20:49:13.381Z,4.25
2023-01-27T20:51:42.226Z,3.15
2023-01-27T20:54:13.452Z,3.42
2023-01-27T20:56:42.426Z,4.53
2023-01-27T20:59:11.681Z,2.20
2023-01-27T21:01:40.714Z,5.85
2023-01-27T21:04:11.347Z,4.50
2023-01-27T21:06:40.563Z,3.05
2023-01-27T21:09:10.027Z,4.80
2023-01-27T21:11:38.961Z,4.72
2023-01-27T21:14:08.206Z,4.50
2023-01-27T21:16:37.896Z,7.10
2023-01-27T21:19:07.209Z,5.10
2023-01-27T21:21:37.546Z,4.78
2023-01-27T21:24:08.333Z,4.57
2023-01-27T21:29:07.682Z,4.43
2023-01-27T21:31:36.699Z,5.85
2023-01-27T21:34:06.111Z,6.07
2023-01-27T21:36:36.478Z,5.43
2023-01-27T21:39:06.015Z,7.60
2023-01-27T21:41:52.839Z,7.28
2023-01-27T21:44:41.673Z,7.10
2023-01-27T21:47:13.463Z,8.60
2023-01-27T21:50:04.170Z,11.38
2023-01-27T21:52:37.695Z,8.30
2023-01-27T21:55:09.667Z,8.98
2023-01-27T21:57:38.848Z,10.23
2023-01-27T22:00:10.667Z,8.77
2023-01-27T22:02:43.337Z,8.40
2023-01-27T22:05:13.742Z,13.45
2023-01-27T22:07:44.495Z,15.20
2023-01-27T22:10:17.955Z,21.63
2023-01-27T22:12:47.452Z,25.30
2023-01-27T22:15:18.645Z,29.73
2023-01-27T22:17:47.673Z,18.27
2023-01-27T22:20:18.048Z,15.23
2023-01-27T22:22:48.939Z,19.67
2023-01-27T22:25:19.174Z,15.30
2023-01-27T22:27:48.328Z,28.02
2023-01-27T22:30:19.698Z,30.50
2023-01-27T22:32:49.787Z,25.88
2023-01-27T22:35:20.739Z,20.13
2023-01-27T22:37:52.831Z,9.90
2023-01-27T22:40:22.225Z,10.15
2023-01-27T22:42:51.562Z,8.85
2023-01-27T22:45:21.020Z,10.82
2023-01-27T22:47:50.341Z,12.52
2023-01-27T22:50:20.367Z,10.45
2023-01-27T22:52:50.742Z,11.00
2023-01-27T22:55:20.333Z,13.93
2023-01-27T22:57:49.242Z,8.20
2023-01-27T23:00:19.325Z,16.88
2023-01-27T23:02:48.345Z,14.40
2023-01-27T23:05:17.871Z,9.82
2023-01-27T23:07:50.104Z,13.65
2023-01-27T23:10:19.811Z,14.35
2023-01-27T23:12:49.029Z,12.20
2023-01-27T23:15:18.391Z,15.57
2023-01-27T23:17:48.578Z,11.60
2023-01-27T23:20:18.139Z,10.35
2023-01-27T23:22:47.303Z,7.30
2023-01-27T23:25:17.968Z,7.87
2023-01-27T23:27:46.944Z,11.43
2023-01-27T23:30:16.333Z,6.72
2023-01-27T23:32:45.803Z,8.05
2023-01-27T23:35:15.346Z,7.20
2023-01-27T23:37:44.463Z,8.27
2023-01-27T23:40:14.496Z,6.50
2023-01-27T23:42:44.742Z,7.30
2023-01-27T23:45:14.410Z,8.85
2023-01-27T23:47:43.550Z,10.40
2023-01-27T23:50:13.128Z,9.50
2023-01-27T23:52:42.174Z,10.90
2023-01-27T23:55:12.800Z,7.43
2023-01-27T23:57:43.561Z,9.13
